Date,TemperatureHighF,TemperatureAvgF,TemperatureLowF,DewpointHighF,DewpointAvgF,DewpointLowF,HumidityHigh,HumidityAvg,HumidityLow,PressureMaxIn,PressureMinIn,WindSpeedMaxMPH,WindSpeedAvgMPH,GustSpeedMaxMPH,PrecipitationSumIn
2012-1-1,64.9,48.8,35.4,54.1,40.6,26.1,93,74,49,30.10,29.81,15,2,0,0.03
2012-1-2,44.0,36.1,24.1,25.9,18.0,10.7,67,48,34,30.03,29.90,11,2,5,0.00
2012-1-3,30.0,23.5,20.0,12.0,9.9,6.9,63,56,42,30.27,30.02,9,2,2,0.00
2012-1-4,41.6,29.3,18.1,16.7,12.9,9.1,74,52,31,30.31,29.99,12,2,3,0.00
2012-1-5,54.8,41.7,27.5,28.7,22.4,13.6,70,47,33,30.08,29.96,7,1,0,0.00
2012-1-6,65.0,48.3,34.5,31.2,27.2,23.9,68,46,26,30.04,29.93,11,2,0,0.00
2012-1-7,68.1,55.2,42.3,47.0,39.1,28.7,70,55,44,30.03,29.90,9,2,4,0.00
2012-1-8,55.2,49.9,40.8,45.8,34.8,27.2,74,57,36,30.23,30.03,5,1,4,0.00
2012-1-9,47.7,42.0,39.5,42.6,40.6,36.3,98,95,66,30.21,30.02,5,1,0,0.09
2012-1-10,57.9,47.0,39.4,43.4,40.3,35.9,99,80,47,30.07,29.96,4,1,4,0.00
2012-1-11,46.8,44.5,40.6,45.2,43.1,40.1,98,95,84,29.96,29.50,7,1,0,1.08
2012-1-12,55.4,48.1,39.1,49.2,44.1,35.6,99,87,59,29.62,29.44,21,3,0,0.10
2012-1-13,45.2,33.6,25.9,36.0,19.4,16.2,75,56,42,30.01,29.50,16,3,0,0.00
2012-1-14,41.9,33.3,22.3,24.0,18.7,15.9,79,56,36,30.15,30.03,10,2,4,0.00
2012-1-15,44.4,35.8,29.6,30.1,25.0,20.2,92,67,40,30.48,30.07,6,1,1,0.00
2012-1-16,46.2,34.8,24.2,33.4,26.0,19.8,86,71,53,30.52,30.27,12,2,12,0.00
2012-1-17,60.2,52.2,40.6,54.8,46.4,33.0,94,81,74,30.22,29.81,24,6,12,0.14
2012-1-18,55.6,43.4,30.4,53.6,34.3,20.7,94,71,45,30.09,29.83,8,2,4,0.01
2012-1-19,44.3,35.6,23.7,30.3,23.2,16.6,75,61,48,30.17,30.00,11,2,0,0.00
2012-1-20,53.2,42.7,30.8,42.5,34.8,26.5,97,75,52,30.11,30.00,7,1,0,0.30
2012-1-21,47.2,42.9,37.9,46.4,42.2,36.6,98,97,93,30.15,29.80,7,1,5,0.10
2012-1-22,37.9,34.4,31.6,36.2,32.2,29.0,98,92,86,30.33,30.13,12,2,0,0.01
2012-1-23,42.2,36.9,33.9,41.9,36.5,33.4,99,98,98,30.26,29.98,6,1,2,0.16
2012-1-24,62.5,48.4,40.8,50.2,42.3,35.6,99,82,46,30.21,29.98,7,1,0,0.01
2012-1-25,61.1,47.9,35.0,38.4,34.6,31.5,89,62,34,30.30,30.15,5,1,6,0.00
2012-1-26,64.9,55.6,45.5,59.4,49.6,38.2,93,80,67,30.15,29.66,12,2,0,0.00
2012-1-27,63.8,58.4,39.7,59.7,51.8,32.8,89,79,54,30.00,29.55,21,4,4,0.03
2012-1-28,59.5,45.4,32.9,39.5,33.2,23.3,90,64,42,30.20,29.99,11,2,0,0.00
2012-1-29,50.6,41.0,28.8,23.4,17.1,11.6,63,40,21,30.34,30.17,11,2,6,0.00
2012-1-30,58.6,46.2,33.3,25.4,20.9,13.9,54,37,25,30.38,30.20,11,2,0,0.00
2012-1-31,66.8,52.0,38.3,36.3,28.9,24.2,58,42,30,30.34,30.19,11,3,11,0.00
2012-2-1,65.9,53.5,47.9,52.3,41.8,30.4,97,67,44,30.21,30.03,10,2,0,0.29
2012-2-2,65.5,54.6,42.6,53.8,45.1,30.3,98,74,34,30.30,29.96,9,2,1,0.01
2012-2-3,57.6,45.8,35.1,36.4,31.1,27.9,82,58,33,30.45,30.30,9,1,0,0.00
2012-2-4,49.2,45.1,42.0,46.5,38.1,31.7,98,78,58,30.32,29.99,11,2,7,0.20
2012-2-5,46.7,39.9,37.3,46.2,38.6,35.3,98,95,90,30.20,30.00,8,2,8,0.16
2012-2-6,47.9,40.5,32.9,36.5,34.1,32.1,98,79,57,30.25,30.09,7,1,5,0.00
2012-2-7,56.6,43.4,32.1,34.3,29.7,26.5,89,61,32,30.16,30.08,6,1,0,0.00
2012-2-8,48.1,39.8,30.8,39.1,32.0,26.2,89,74,60,30.17,30.07,5,1,5,0.00
2012-2-9,49.7,40.7,35.3,29.5,27.5,25.2,77,60,40,30.26,30.13,8,1,0,0.00
2012-2-10,47.4,39.5,29.2,39.8,34.1,26.7,93,81,70,30.15,29.83,9,1,6,0.00
2012-2-11,46.9,32.8,22.1,34.2,13.6,3.5,69,45,34,30.02,29.73,15,5,6,0.00
2012-2-12,40.1,26.6,18.5,15.0,9.5,2.6,58,48,33,30.22,30.05,11,2,12,0.00
2012-2-13,49.7,37.2,23.4,20.8,16.6,12.7,70,45,24,30.24,30.05,8,1,0,0.00
2012-2-14,50.9,44.1,40.1,38.9,30.1,19.9,85,59,43,30.06,29.94,15,2,15,0.00
2012-2-15,61.9,47.6,34.0,38.7,34.1,28.6,97,64,31,30.25,30.03,7,1,0,0.00
2012-2-16,56.5,50.0,46.2,50.7,48.3,45.3,98,94,68,30.07,29.97,7,1,11,0.17
2012-2-17,62.1,50.2,40.4,47.1,38.1,28.8,99,68,33,30.10,30.00,7,1,7,0.00
2012-2-18,61.3,51.5,40.7,40.6,33.7,27.5,69,52,33,30.09,29.92,9,1,0,0.00
2012-2-19,51.4,38.8,31.1,43.0,33.8,30.2,97,84,56,29.93,29.73,15,3,0,0.20
2012-2-20,48.8,36.5,27.7,34.0,29.0,24.8,98,77,42,30.29,29.92,7,1,0,0.35
2012-2-21,55.5,44.9,30.4,41.8,34.5,25.5,83,68,50,30.27,29.93,17,4,17,0.00
2012-2-22,64.4,52.9,40.4,51.9,43.3,38.1,94,72,40,29.93,29.53,18,3,11,0.29
2012-2-23,70.8,56.4,42.8,56.8,50.5,41.7,98,82,56,29.65,29.52,13,2,0,0.01
2012-2-24,76.8,62.6,42.2,62.0,51.0,24.3,89,67,40,29.87,29.40,20,6,20,0.26
2012-2-25,48.7,40.5,32.2,22.7,20.0,16.8,58,44,31,30.28,29.89,25,3,8,0.00
2012-2-26,52.4,39.0,25.0,24.6,21.7,18.0,76,52,30,30.45,30.28,9,1,9,0.00
2012-2-27,57.2,44.3,33.8,48.2,35.8,23.7,97,73,56,30.41,30.26,9,1,0,0.00
2012-2-28,66.8,49.2,36.0,45.4,36.9,24.0,98,69,21,30.40,30.24,6,1,6,0.00
2012-2-29,65.8,58.2,51.8,60.0,53.4,39.7,97,85,58,30.18,29.76,14,4,17,0.11
2012-3-1,76.6,64.6,52.1,60.5,43.0,19.4,95,54,13,29.87,29.73,15,3,0,0.00
2012-3-2,54.1,48.2,41.6,49.3,39.9,25.7,98,76,34,29.98,29.66,7,1,3,0.05
2012-3-3,60.6,52.7,48.3,53.5,40.0,24.2,99,68,33,29.74,29.55,6,1,6,0.41
2012-3-4,48.9,42.7,29.9,29.5,23.9,17.0,77,48,33,29.95,29.64,13,2,13,0.00
2012-3-5,47.8,37.3,29.8,34.0,22.8,16.6,78,57,33,30.45,29.84,14,2,12,0.00
2012-3-6,56.3,39.5,25.1,26.3,22.1,18.1,79,53,27,30.61,30.44,7,1,7,0.00
2012-3-7,67.0,50.2,35.9,49.3,38.6,24.0,80,65,44,30.59,30.39,12,2,12,0.00
2012-3-8,68.7,59.9,52.5,56.4,52.0,49.2,92,76,52,30.40,30.07,14,3,0,0.01
2012-3-9,59.9,53.8,42.9,56.8,38.6,24.6,97,61,29,30.30,30.04,9,2,9,0.12
2012-3-10,57.9,44.8,34.4,28.0,22.9,17.5,67,44,23,30.47,30.30,7,1,8,0.00
2012-3-11,63.8,51.7,31.5,34.3,28.9,24.5,76,44,24,30.55,30.39,8,2,8,0.00
2012-3-12,67.0,56.6,43.5,53.5,43.4,28.3,77,62,43,30.40,30.20,14,3,0,0.00
2012-3-13,76.4,65.5,57.6,60.2,56.1,49.8,89,73,50,30.21,30.07,12,3,10,0.00
2012-3-14,81.9,69.2,56.2,58.2,52.7,44.9,94,61,30,30.23,30.13,9,1,0,0.00
2012-3-15,81.2,67.1,57.1,56.8,53.0,49.3,82,63,34,30.26,30.16,9,1,4,0.01
2012-3-16,79.1,63.8,52.1,59.9,54.5,50.5,96,75,43,30.22,30.08,8,1,0,0.00
2012-3-17,78.3,63.9,55.7,61.5,57.6,53.4,97,82,47,30.23,30.14,7,1,7,0.14
2012-3-18,70.2,61.5,55.9,62.7,58.7,55.3,99,91,73,30.32,30.18,5,0,0,0.00
2012-3-19,78.8,65.6,54.5,62.7,58.1,53.7,99,80,50,30.25,30.09,8,1,8,0.01
2012-3-20,82.3,67.6,56.9,65.6,60.1,55.6,98,79,48,30.24,30.08,9,1,4,1.14
2012-3-21,76.4,64.0,54.2,65.3,58.8,53.9,99,85,58,30.30,30.17,7,1,7,0.01
2012-3-22,78.5,66.9,59.3,64.1,60.6,58.4,98,82,54,30.25,30.12,8,1,0,0.00
2012-3-23,80.4,70.8,58.8,65.1,61.4,57.4,96,74,54,30.11,29.94,10,2,2,0.12
2012-3-24,75.7,64.2,56.6,66.1,60.1,50.9,97,88,49,29.96,29.70,12,2,0,0.79
2012-3-25,63.7,56.8,50.5,57.1,54.0,49.4,98,91,74,29.81,29.70,7,1,7,0.64
2012-3-26,73.5,66.7,54.1,55.5,46.7,27.9,97,50,36,30.11,29.81,8,2,2,0.01
2012-3-27,64.3,51.7,39.5,36.4,29.6,22.9,61,43,29,30.33,30.11,8,1,0,0.00
2012-3-28,75.8,60.8,47.4,59.5,49.7,34.6,84,67,54,30.21,29.85,15,4,0,0.00
2012-3-29,81.2,69.4,57.8,57.3,45.5,33.9,74,47,21,29.93,29.82,8,2,0,0.00
2012-3-30,75.9,62.7,51.5,56.2,47.8,33.7,80,59,39,30.05,29.84,11,1,0,0.00
2012-3-31,66.6,61.4,58.8,61.4,58.2,56.1,97,89,69,29.84,29.75,7,1,5,0.17
2012-4-1,66.0,58.1,52.1,55.5,51.6,48.8,95,80,62,29.90,29.71,7,1,7,0.00
2012-4-2,80.8,66.5,57.5,64.7,56.3,48.7,95,72,39,29.92,29.64,9,1,9,0.12
2012-4-3,77.8,61.0,44.9,60.6,52.0,43.3,95,75,46,30.01,29.85,10,1,0,0.46
2012-4-4,77.8,65.7,58.1,62.7,59.7,56.6,96,83,51,29.81,29.62,9,1,6,0.23
2012-4-5,63.7,57.1,49.5,60.8,48.4,40.6,97,74,47,29.81,29.66,8,1,8,0.12
2012-4-6,64.8,55.1,44.7,44.7,38.7,32.1,94,58,30,30.07,29.80,7,1,9,0.06
2012-4-7,57.0,54.7,53.7,36.9,36.0,34.8,52,49,43,30.13,30.11,1,0,2,0.00
2012-4-8,77.2,59.6,43.4,44.6,37.7,28.5,78,47,24,30.13,29.92,10,1,10,0.00
2012-4-9,72.9,60.4,42.3,40.2,32.9,27.0,76,38,19,30.04,29.82,12,2,12,0.00
2012-4-10,71.1,59.8,48.8,38.7,32.4,23.7,51,36,24,29.92,29.75,18,2,18,0.00
2012-4-11,54.2,47.8,35.9,29.7,27.3,23.7,73,46,32,30.02,29.82,7,1,0,0.00
2012-4-12,64.4,55.0,38.1,35.8,31.9,28.3,70,43,26,30.21,30.07,6,1,2,0.00
2012-4-13,69.2,51.8,36.0,40.9,35.1,30.8,93,57,26,30.24,30.11,5,1,5,0.00
2012-4-14,73.3,60.4,46.2,46.5,41.6,36.0,75,52,34,30.30,30.14,12,2,0,0.00
2012-4-15,78.0,67.1,56.1,62.2,56.9,41.7,93,71,48,30.20,30.10,15,4,0,0.00
2012-4-16,83.0,71.9,60.3,62.2,60.0,57.5,93,68,47,30.16,30.04,16,4,9,0.00
2012-4-17,82.1,71.1,56.1,61.1,57.7,53.2,93,66,42,30.19,30.05,6,1,2,0.21
2012-4-18,56.4,53.0,50.7,54.2,50.4,48.4,96,91,82,30.19,30.06,9,2,0,0.40
2012-4-19,64.9,56.2,49.9,55.8,51.8,48.8,96,86,67,30.09,30.01,4,1,5,0.00
2012-4-20,70.8,61.6,51.3,57.9,55.0,50.2,97,80,61,30.00,29.84,7,1,0,0.00
2012-4-21,77.9,65.8,55.4,62.2,58.0,54.4,98,78,48,29.86,29.67,9,2,0,0.00
2012-4-22,60.0,52.6,44.7,54.7,50.3,42.8,97,92,82,29.73,29.51,7,2,6,0.46
2012-4-23,53.5,45.0,38.3,42.7,36.2,29.4,93,73,47,29.66,29.48,8,1,8,0.03
2012-4-24,62.9,49.9,36.3,38.1,31.4,24.3,75,52,27,29.78,29.64,13,2,0,0.00
2012-4-25,67.6,55.0,45.6,53.5,46.9,37.2,92,75,56,29.94,29.78,13,1,13,0.02
2012-4-26,76.6,61.9,51.1,63.9,57.9,50.2,98,88,60,29.90,29.75,15,2,15,0.51
2012-4-27,75.1,65.1,55.2,63.1,54.3,45.3,97,71,36,30.08,29.82,7,0,10,0.02
2012-4-28,57.2,53.9,51.5,49.0,45.7,42.6,87,74,63,30.19,30.08,6,1,4,0.00
2012-4-29,81.0,65.6,49.6,64.8,56.9,47.4,96,75,52,30.19,30.06,7,1,6,0.00
2012-4-30,78.9,68.9,60.7,70.2,64.0,58.9,95,85,67,30.23,30.06,9,1,0,0.00
2012-5-1,85.3,73.0,65.4,69.9,66.1,61.4,96,80,55,30.13,30.02,12,2,8,0.00
2012-5-2,89.8,76.8,66.4,70.6,66.8,63.5,91,73,46,30.13,30.03,8,2,0,0.00
2012-5-3,90.9,78.4,64.7,70.9,65.9,62.0,92,67,43,30.14,30.04,6,1,0,0.00
2012-5-4,86.6,75.4,64.3,69.5,63.7,59.7,95,70,44,30.08,29.91,12,1,12,0.00
2012-5-5,84.6,70.3,65.3,68.7,65.0,61.4,96,84,50,29.92,29.81,8,0,8,1.06
2012-5-6,76.7,68.3,62.4,66.2,63.4,60.3,95,85,63,30.04,29.91,6,1,6,0.00
2012-5-7,77.7,67.3,60.1,64.1,60.6,58.9,97,81,57,30.07,29.94,6,0,0,0.00
2012-5-8,75.5,68.5,63.7,66.9,63.7,60.3,97,85,73,29.99,29.82,10,2,10,0.43
2012-5-9,72.9,63.4,55.0,67.3,62.0,54.3,98,95,79,29.87,29.69,6,1,6,1.72
2012-5-10,72.3,59.1,48.1,55.3,50.1,44.9,98,75,40,29.97,29.73,7,0,0,0.00
2012-5-11,74.1,59.2,43.1,50.1,43.7,36.5,95,61,28,30.21,29.99,6,1,0,0.00
2012-5-12,75.9,62.7,46.2,56.0,49.0,42.0,92,63,34,30.33,30.21,8,1,0,0.00
2012-5-13,70.7,63.1,56.3,62.1,58.0,52.1,97,84,68,30.24,30.10,6,1,0,0.48
2012-5-14,71.9,64.5,60.4,67.4,62.7,59.3,98,94,83,30.10,29.85,9,2,8,2.79
2012-5-15,78.2,67.0,58.6,67.4,62.8,58.0,99,87,63,30.00,29.92,5,1,0,0.00
2012-5-16,80.8,69.7,61.2,67.9,64.2,60.3,98,84,60,29.98,29.88,5,0,4,0.05
2012-5-17,82.0,70.6,57.9,68.1,62.7,57.1,98,78,55,30.05,29.91,7,1,0,0.00
2012-5-18,75.8,66.7,55.3,60.5,56.8,50.6,93,72,53,30.12,30.03,7,1,4,0.00
2012-5-19,75.2,63.8,49.3,57.8,53.6,47.8,97,72,49,30.17,30.07,5,0,4,0.00
2012-5-20,82.1,66.4,51.0,61.3,55.8,49.8,98,72,41,30.14,30.04,8,1,0,0.00
2012-5-21,82.0,69.7,59.1,67.1,62.1,57.0,95,78,51,30.04,29.87,6,0,0,0.01
2012-5-22,84.4,70.0,58.6,68.3,63.0,57.5,98,80,54,29.89,29.78,7,0,4,2.28
2012-5-23,78.9,67.4,61.6,65.8,62.9,60.7,98,87,58,29.94,29.81,6,0,6,0.29
2012-5-24,83.1,69.4,61.3,70.9,64.5,60.4,98,86,52,30.05,29.92,7,0,7,0.16
2012-5-25,88.6,74.4,61.8,72.8,65.7,61.2,99,78,43,30.14,30.05,5,0,0,0.00
2012-5-26,87.3,75.2,64.9,74.6,68.3,64.0,98,81,58,30.17,30.08,6,0,0,0.00
2012-5-27,86.6,75.3,63.3,70.1,66.7,62.5,98,77,51,30.16,30.07,7,0,0,0.00
2012-5-28,87.5,76.1,69.4,72.3,68.8,67.1,96,80,52,30.10,29.98,7,1,0,0.00
2012-5-29,83.5,74.7,68.8,73.5,69.1,67.1,97,84,63,30.02,29.83,11,2,0,0.00
2012-5-30,86.3,74.3,66.2,70.0,64.7,57.9,98,75,45,29.85,29.74,7,1,1,0.03
2012-5-31,87.9,74.8,63.2,64.9,60.9,56.3,92,64,39,29.90,29.81,10,1,10,0.08
2012-6-1,80.9,70.3,60.1,70.4,65.2,58.9,96,84,67,29.86,29.68,10,2,10,0.07
2012-6-2,74.6,63.0,51.8,56.8,52.0,48.7,95,70,42,29.92,29.80,6,0,0,0.01
2012-6-3,79.6,66.1,49.7,59.5,53.7,47.3,93,66,45,29.95,29.80,11,1,0,0.00
2012-6-4,83.0,71.4,62.5,64.4,58.6,55.9,82,65,41,29.82,29.67,8,0,0,0.00
2012-6-5,75.3,66.3,58.6,61.9,57.5,54.1,97,75,51,29.90,29.73,9,1,9,0.02
2012-6-6,68.1,60.5,55.4,59.1,56.3,53.7,96,86,69,30.01,29.89,9,1,0,0.17
2012-6-7,78.4,65.8,53.7,62.1,56.5,51.6,98,75,43,30.06,29.99,5,0,0,0.00
2012-6-8,84.3,70.9,55.5,60.5,55.4,49.8,95,62,33,30.08,29.99,5,0,0,0.00
2012-6-9,86.8,73.2,57.6,64.1,59.4,54.3,90,64,38,30.09,30.00,7,1,7,0.00
2012-6-10,83.3,74.3,64.1,65.9,61.6,58.2,86,66,47,30.16,30.06,7,1,4,0.00
2012-6-11,84.1,73.2,68.4,74.4,68.8,62.6,96,87,65,30.16,30.00,10,2,0,0.01
2012-6-12,84.8,73.0,67.1,74.7,69.7,64.4,98,90,66,30.01,29.85,8,2,7,1.64
2012-6-13,85.7,74.6,64.5,71.9,67.3,61.8,99,79,57,30.04,29.90,5,0,4,0.01
2012-6-14,81.2,70.4,60.4,66.4,60.1,53.9,93,71,47,30.18,30.05,9,1,0,0.00
2012-6-15,80.0,68.4,59.9,64.7,61.8,59.0,98,81,54,30.25,30.15,7,1,7,0.00
2012-6-16,79.7,68.0,55.5,60.8,57.1,53.8,97,71,44,30.30,30.15,7,0,7,0.00
2012-6-17,81.8,69.5,55.3,66.1,60.2,53.9,97,74,54,30.19,30.02,7,0,0,0.00
2012-6-18,85.1,73.7,63.9,69.8,65.0,57.2,95,75,57,30.09,30.02,7,1,0,0.02
2012-6-19,92.4,77.8,67.1,71.8,67.7,64.8,97,73,44,30.17,30.09,7,1,6,0.00
2012-6-20,93.8,81.4,68.8,74.6,70.2,66.5,96,71,44,30.18,30.06,6,0,0,0.00
2012-6-21,93.3,80.8,70.8,74.6,70.2,68.2,93,72,45,30.07,29.90,6,1,6,0.00
2012-6-22,92.5,78.3,69.9,73.9,70.4,66.8,98,80,48,29.94,29.85,13,1,3,0.87
2012-6-23,88.5,77.6,67.6,74.7,69.6,66.5,99,78,51,30.03,29.89,7,0,3,0.01
2012-6-24,89.2,76.5,65.2,74.2,67.7,64.0,97,77,47,30.03,29.91,10,1,6,0.06
2012-6-25,92.7,78.8,67.2,74.9,68.9,61.2,99,74,43,29.90,29.71,7,1,4,0.01
2012-6-26,80.1,70.1,59.9,56.3,53.2,48.2,82,57,35,29.93,29.84,5,1,4,0.00
2012-6-27,85.5,71.6,52.9,59.5,55.2,50.7,94,60,32,30.00,29.89,5,0,0,0.00
2012-6-28,93.2,80.5,62.2,65.9,60.5,54.9,84,53,33,30.03,29.88,8,2,2,0.00
2012-6-29,102.8,88.0,71.4,76.4,68.8,62.7,74,54,37,29.93,29.78,13,1,0,0.00
2012-6-30,99.8,85.3,68.7,74.7,68.0,58.4,82,58,37,29.93,29.83,8,1,3,0.00
2012-7-1,97.9,84.5,72.5,78.0,67.5,58.3,74,58,36,30.06,29.87,6,0,0,0.00
2012-7-2,93.6,79.2,65.9,73.5,68.2,63.6,96,72,43,30.11,29.96,8,1,5,0.62
2012-7-3,95.2,81.3,69.6,74.6,70.2,65.9,92,71,43,30.03,29.93,8,0,1,0.00
2012-7-4,97.2,82.6,70.1,74.6,70.3,66.4,94,69,41,30.00,29.91,5,1,2,0.00
2012-7-5,98.2,82.4,71.4,76.8,70.7,64.9,93,70,44,29.98,29.89,9,0,0,0.00
2012-7-6,98.1,81.5,67.4,74.9,69.2,63.9,91,69,43,29.99,29.91,7,1,6,0.00
2012-7-7,98.6,87.6,74.8,75.0,71.9,69.3,91,62,40,30.02,29.93,8,1,3,0.00
2012-7-8,102.0,88.5,75.3,76.9,72.5,67.4,87,62,34,29.98,29.84,6,1,4,0.00
2012-7-9,96.0,83.1,72.0,74.2,71.3,69.2,94,70,46,29.98,29.86,7,1,0,0.04
2012-7-10,82.1,74.1,70.5,74.5,70.6,68.2,98,89,67,30.04,29.96,3,0,4,0.14
2012-7-11,79.3,70.8,62.1,73.3,68.4,60.5,98,92,78,30.15,30.02,8,0,5,0.26
2012-7-12,78.2,70.5,62.6,70.3,66.6,60.8,97,88,72,30.19,30.12,4,0,0,0.00
2012-7-13,87.5,75.7,67.2,74.6,70.0,66.0,97,84,56,30.20,30.13,8,1,0,0.17
2012-7-14,83.0,76.3,71.5,78.3,74.1,70.5,99,93,78,30.23,30.12,8,1,3,0.44
2012-7-15,89.3,78.8,69.1,76.9,72.9,68.5,99,84,60,30.20,30.08,9,1,0,0.00
2012-7-16,91.6,79.2,69.7,76.9,73.0,67.6,97,83,58,30.09,29.94,10,1,8,1.13
2012-7-17,95.4,82.7,69.8,78.2,72.1,65.3,99,74,41,30.00,29.90,4,0,4,0.00
2012-7-18,93.2,82.5,73.1,76.4,72.6,69.4,96,74,51,30.00,29.90,10,1,3,0.00
2012-7-19,91.3,85.0,77.3,75.9,73.9,70.4,84,70,55,30.03,29.93,6,1,8,0.00
2012-7-20,89.7,77.4,71.3,75.9,72.4,70.0,96,85,59,29.97,29.89,7,1,5,0.00
2012-7-21,90.9,79.0,71.2,76.6,72.8,70.3,98,83,55,30.09,29.94,9,2,5,0.00
2012-7-22,88.1,76.5,70.9,76.7,72.6,70.0,98,88,65,30.19,30.09,6,1,2,0.00
2012-7-23,91.6,82.2,71.9,78.3,74.0,71.2,99,78,54,30.18,30.03,8,1,4,0.01
2012-7-24,94.8,79.5,71.2,78.7,71.6,66.5,92,78,56,30.00,29.85,7,1,0,0.03
2012-7-25,90.5,78.5,69.5,74.7,70.2,66.5,96,78,54,29.98,29.90,7,1,4,0.01
2012-7-26,96.8,86.6,74.5,77.8,74.0,71.5,96,68,48,29.92,29.78,11,1,4,0.00
2012-7-27,96.3,81.3,72.5,75.6,73.2,69.2,95,79,47,29.96,29.84,11,1,11,0.25
2012-7-28,95.4,80.6,69.7,77.5,70.3,66.7,99,75,41,30.00,29.90,8,1,1,0.02
2012-7-29,92.0,78.8,65.5,70.6,66.7,63.2,98,70,41,30.03,29.94,5,0,2,0.00
2012-7-30,91.0,77.8,67.0,73.6,68.9,66.0,97,77,48,30.05,29.94,8,1,8,0.00
2012-7-31,87.6,78.8,67.4,72.5,70.0,66.8,98,76,53,30.01,29.89,9,1,8,0.00
2012-8-1,95.1,80.5,68.4,74.2,69.6,62.5,98,73,36,29.95,29.83,5,1,5,0.00
2012-8-2,96.0,83.1,67.8,71.2,67.3,60.9,86,62,33,29.94,29.85,7,1,11,0.00
2012-8-3,90.5,77.8,68.2,74.0,70.6,66.7,96,80,56,30.07,29.93,8,1,8,0.00
2012-8-4,90.5,78.5,70.8,74.6,71.2,69.4,97,80,52,30.20,30.06,10,2,10,0.00
2012-8-5,91.1,79.8,71.9,73.5,71.8,70.1,94,78,54,30.24,30.10,11,2,10,0.00
2012-8-6,88.8,78.6,71.8,74.2,72.1,70.0,96,82,57,30.14,30.01,9,2,8,1.44
2012-8-7,85.4,75.6,71.6,74.6,72.4,70.7,98,90,68,30.05,29.96,5,1,8,0.01
2012-8-8,88.4,74.0,70.1,74.9,70.0,67.6,97,88,58,30.00,29.94,5,1,5,0.00
2012-8-9,86.3,71.5,68.3,74.4,68.2,66.5,97,90,65,29.99,29.89,6,0,10,0.35
2012-8-10,68.4,68.3,68.2,67.5,67.2,66.7,97,96,95,29.89,29.85,1,0,3,0.33
2012-8-12,68.3,67.4,65.8,63.7,63.2,62.5,91,86,84,30.03,30.01,0,0,0,0.34
2012-8-13,87.1,73.8,62.0,69.9,64.9,61.0,98,76,48,30.06,29.94,10,1,6,0.00
2012-8-14,87.2,77.3,67.9,71.7,67.4,63.6,92,73,49,29.97,29.85,8,1,0,0.00
2012-8-15,76.0,70.4,65.4,70.5,67.1,63.8,95,90,80,29.97,29.89,1,0,1,0.00
2012-8-16,87.1,74.5,61.2,68.8,63.9,60.3,98,73,43,30.05,29.94,6,0,0,0.00
2012-8-17,88.7,75.6,64.7,71.4,67.4,62.0,97,78,49,29.95,29.84,8,1,4,0.02
2012-8-18,83.7,73.2,65.9,70.4,67.7,65.3,99,84,57,29.94,29.84,5,0,1,0.01
2012-8-19,70.4,70.1,69.6,68.0,67.7,64.4,93,92,91,29.90,29.88,0,0,0,0.01
2012-8-20,79.2,70.0,63.9,68.8,65.8,62.7,99,88,63,29.99,29.85,6,0,2,0.52
2012-8-21,84.5,71.7,60.7,69.5,64.7,60.2,99,81,48,30.07,29.97,4,0,4,0.00
2012-8-22,82.8,70.6,65.2,72.3,67.0,64.4,98,89,66,30.13,30.05,5,0,0,0.35
2012-8-23,82.7,70.5,62.6,72.9,66.5,62.3,99,88,60,30.16,30.09,3,0,0,0.00
2012-8-24,83.4,74.4,63.3,68.4,62.0,58.1,92,67,45,30.15,30.10,9,1,0,0.00
2012-8-25,78.7,67.7,56.9,65.4,60.7,56.1,98,80,55,30.17,30.10,6,1,6,0.00
2012-8-26,84.8,71.7,59.0,69.5,64.3,57.6,97,79,57,30.19,30.09,4,0,6,0.00
2012-8-27,88.5,75.0,62.6,73.4,67.1,62.0,99,79,49,30.17,30.02,5,0,0,0.00
2012-8-28,91.0,78.3,69.8,73.9,70.8,67.8,98,80,49,30.03,29.90,7,2,3,3.55
2012-8-29,87.0,76.0,69.7,74.8,70.4,67.4,99,85,56,30.02,29.93,7,0,0,0.07
2012-8-30,88.1,76.4,68.4,76.3,71.5,67.8,99,86,57,30.15,30.00,8,1,8,0.00
2012-8-31,92.5,80.7,73.2,78.6,74.0,72.3,98,82,58,30.23,30.09,6,1,0,0.00
2012-9-1,91.2,80.2,71.8,78.1,74.0,70.3,97,83,59,30.16,30.05,4,0,0,0.04
2012-9-2,91.2,81.4,71.4,76.6,73.0,69.8,98,78,57,30.04,29.92,7,1,6,0.14
2012-9-3,83.9,74.0,68.1,77.2,72.2,67.5,99,94,78,30.03,29.95,6,0,6,0.55
2012-9-4,84.4,75.2,71.9,75.9,72.6,71.0,98,92,72,30.01,29.91,9,2,6,0.14
2012-9-5,84.6,76.8,71.5,74.7,72.6,70.9,98,87,71,29.95,29.85,10,2,7,0.01
2012-9-6,88.9,77.3,69.7,77.8,72.6,68.8,98,86,64,29.96,29.87,7,1,7,0.00
2012-9-7,89.4,78.8,67.1,76.3,71.1,66.8,100,79,54,29.98,29.85,7,0,0,0.00
2012-9-8,82.6,70.5,65.8,75.7,68.0,62.9,98,92,79,29.87,29.71,7,1,0,0.72
2012-9-9,79.2,66.2,54.8,63.7,57.6,53.2,96,76,47,30.01,29.84,4,0,0,0.00
2012-9-10,79.3,63.5,52.9,62.0,55.8,51.6,98,79,42,30.17,30.00,5,0,2,0.00
2012-9-11,80.6,64.0,51.5,60.3,55.4,50.1,98,76,47,30.31,30.17,6,0,0,0.00
2012-9-12,79.6,65.9,52.7,63.5,57.8,51.9,99,77,51,30.36,30.27,5,0,0,0.00
2012-9-13,78.6,63.7,51.4,63.3,56.6,50.6,99,80,46,30.37,30.24,6,0,0,0.00
2012-9-14,83.0,66.0,54.9,68.3,59.9,53.4,98,83,47,30.27,30.15,4,0,0,0.00
2012-9-15,83.3,70.3,57.9,67.6,63.2,56.6,98,80,56,30.20,30.10,6,0,0,0.00
2012-9-16,67.2,62.6,59.2,63.5,60.9,58.3,98,94,88,30.17,30.08,3,0,0,0.97
2012-9-17,72.4,66.7,62.0,69.7,65.4,61.4,98,96,90,30.10,29.89,9,0,0,0.20
2012-9-18,75.5,70.6,65.5,72.3,68.8,64.5,98,94,88,29.84,29.70,16,3,19,1.48
2012-9-19,74.4,64.5,57.6,62.4,58.1,54.7,95,81,56,30.13,29.88,8,1,3,0.00
2012-9-20,76.8,62.2,51.5,61.8,57.1,50.9,99,85,58,30.17,30.04,6,0,0,0.00
2012-9-21,79.5,67.8,57.1,65.6,61.4,56.3,98,82,58,30.08,29.97,7,1,0,0.01
2012-9-22,83.4,71.5,63.3,68.4,64.3,61.0,95,80,53,29.99,29.86,8,2,8,0.05
2012-9-23,75.9,62.1,50.3,60.8,49.6,40.0,94,68,29,30.15,29.99,4,0,0,0.01
2012-9-24,71.3,56.4,42.1,48.5,44.0,39.7,95,67,34,30.24,30.14,7,0,0,0.00
2012-9-25,74.7,61.8,44.5,61.2,54.5,42.9,98,79,58,30.24,30.12,10,1,0,0.00
2012-9-26,81.3,67.8,57.6,65.5,60.5,55.8,94,79,56,30.21,30.13,9,1,0,0.00
2012-9-27,85.5,70.7,58.4,67.3,62.4,57.6,98,77,47,30.19,30.08,5,1,0,0.00
2012-9-28,83.4,68.6,61.8,68.1,63.7,59.2,97,86,58,30.10,30.00,6,1,0,0.11
2012-9-29,66.0,62.8,59.4,65.4,62.2,59.1,99,98,97,29.99,29.89,4,0,3,0.95
2012-9-30,70.4,60.2,51.9,61.3,56.5,51.6,100,89,60,29.94,29.84,5,0,0,0.01
2012-10-1,61.1,59.1,57.2,60.3,58.2,56.2,99,97,91,29.91,29.85,6,0,6,0.08
2012-10-2,81.7,69.6,60.9,75.6,68.3,60.6,100,96,80,29.95,29.80,5,0,5,0.35
2012-10-3,81.3,71.9,66.7,70.9,67.7,64.7,100,88,65,30.17,29.95,9,1,2,0.00
2012-10-4,80.4,68.7,60.7,67.3,63.4,57.9,97,85,54,30.23,30.15,5,0,4,0.03
2012-10-5,80.4,68.2,52.3,65.2,58.4,51.8,100,74,46,30.19,30.01,7,1,0,0.00
2012-10-6,80.1,68.2,57.6,66.5,60.9,53.8,99,79,58,30.01,29.89,9,1,9,0.02
2012-10-7,55.1,50.7,46.6,51.3,49.0,45.8,98,94,83,30.14,29.97,8,1,8,0.50
2012-10-8,47.2,45.7,43.9,45.7,44.1,42.9,98,94,89,30.23,30.12,6,1,5,0.05
2012-10-9,58.7,50.3,44.1,53.2,48.2,43.5,99,93,79,30.17,30.06,5,1,4,0.01
2012-10-10,71.2,57.2,46.5,56.8,51.1,45.5,99,82,55,30.12,29.98,9,1,0,0.00
2012-10-11,68.0,52.7,39.2,46.7,42.7,37.8,98,73,35,30.30,30.12,6,0,6,0.00
2012-10-12,74.6,57.6,46.0,53.0,48.1,44.3,97,74,43,30.33,30.16,6,0,0,0.00
2012-10-13,66.4,52.8,41.8,49.0,43.8,38.5,95,74,47,30.47,30.31,7,1,0,0.00
2012-10-14,71.3,61.3,44.5,61.3,55.3,43.4,98,82,62,30.26,30.01,11,2,5,0.00
2012-10-15,73.7,62.9,52.1,66.0,58.1,44.6,98,85,52,30.01,29.71,9,2,0,0.65
2012-10-16,71.8,55.8,41.5,51.9,45.4,40.2,98,71,37,29.96,29.85,6,0,1,0.00
2012-10-17,71.0,56.9,45.8,51.8,47.8,43.6,95,74,44,29.99,29.89,9,1,0,0.00
2012-10-18,71.5,59.2,48.0,63.5,55.5,46.5,98,88,75,29.91,29.75,9,1,0,0.24
2012-10-19,70.3,60.7,51.0,60.3,50.0,40.3,100,72,37,29.77,29.67,10,1,0,0.01
2012-10-20,69.4,55.2,44.0,49.6,44.0,40.0,92,68,44,29.97,29.74,8,0,0,0.00
2012-10-21,68.6,50.8,37.6,48.5,42.3,36.0,98,75,41,30.15,29.97,5,0,0,0.00
2012-10-22,76.9,59.0,43.2,54.0,48.6,40.8,97,72,41,30.23,30.13,5,0,0,0.00
2012-10-23,79.0,64.7,50.8,57.7,53.0,48.3,95,68,41,30.17,30.08,10,1,5,0.00
2012-10-24,82.7,65.2,52.9,61.5,54.7,49.8,91,71,41,30.18,30.07,6,1,0,0.00
2012-10-25,79.4,65.8,50.7,60.8,56.6,48.8,98,74,48,30.16,30.08,6,1,3,0.00
2012-10-26,65.4,58.6,53.9,60.9,56.9,53.1,99,94,83,30.13,29.97,4,1,0,0.00
2012-10-27,64.7,60.6,58.6,60.6,57.8,51.4,98,91,72,29.92,29.75,9,2,2,0.00
2012-10-28,68.0,58.7,51.1,53.4,49.7,41.3,86,73,54,29.75,29.60,10,2,0,0.00
2012-10-29,51.1,45.5,43.3,41.6,35.8,31.7,77,69,61,29.64,29.33,11,3,0,0.00
2012-10-30,48.4,44.5,42.0,33.8,31.2,29.0,69,60,52,29.57,29.29,15,3,0,0.00
2012-10-31,52.0,43.3,35.6,38.4,35.3,31.6,88,74,55,29.74,29.57,11,1,11,0.00
2012-11-1,56.3,46.6,40.2,40.6,36.4,29.5,82,68,52,29.83,29.73,11,0,0,0.00
2012-11-2,60.8,47.4,38.2,40.1,32.1,27.2,67,56,36,29.95,29.81,6,1,0,0.00
2012-11-3,62.8,49.0,39.3,39.6,34.0,29.8,70,57,36,30.08,29.96,8,1,0,0.00
2012-11-4,57.7,47.5,41.4,45.5,39.7,35.6,90,75,60,30.05,29.94,5,1,0,0.00
2012-11-5,57.1,42.7,30.2,37.3,32.2,28.4,96,69,39,30.07,29.99,6,0,0,0.00
2012-11-6,42.1,36.5,31.3,34.7,31.9,28.2,92,83,72,30.11,29.91,6,0,4,0.00
2012-11-7,54.1,39.6,27.2,36.8,32.0,25.7,97,76,47,29.92,29.80,5,0,0,0.00
2012-11-8,62.2,46.5,34.5,33.6,27.4,21.1,91,52,22,30.12,29.92,7,1,7,0.00
2012-11-9,67.1,52.6,36.8,34.9,31.9,26.5,70,47,28,30.23,30.11,5,0,6,0.00
2012-11-10,72.8,55.4,39.0,40.4,35.8,31.9,78,50,25,30.34,30.21,8,1,0,0.00
2012-11-11,71.5,58.8,45.1,53.8,44.5,35.5,84,61,37,30.45,30.33,10,2,0,0.00
2012-11-12,66.9,60.9,55.2,61.4,57.6,53.1,94,89,78,30.38,30.14,19,2,0,0.00
2012-11-13,54.0,45.8,35.2,51.9,37.5,28.8,96,75,45,30.38,30.16,10,2,10,0.19
2012-11-14,48.5,39.8,32.2,32.9,30.3,27.0,86,69,51,30.47,30.33,9,2,6,0.00
2012-11-15,44.6,37.6,32.3,34.5,31.1,28.6,90,78,62,30.33,30.22,6,1,5,0.00
2012-11-16,56.1,40.8,29.4,40.1,32.8,27.9,97,76,42,30.38,30.24,6,0,0,0.00
2012-11-17,50.0,38.8,34.8,32.3,30.4,28.3,83,73,47,30.47,30.37,13,2,7,0.00
2012-11-18,54.4,47.9,42.2,43.3,38.9,29.5,79,71,58,30.47,30.35,11,4,10,0.00
2012-11-19,56.4,49.6,40.8,46.2,43.0,38.1,93,78,66,30.33,30.17,8,2,9,0.00
2012-11-20,57.4,45.6,39.1,45.0,40.8,37.2,95,84,62,30.17,30.03,3,0,0,0.00
2012-11-21,62.1,46.2,33.9,46.5,37.5,30.6,98,75,38,30.17,30.06,5,1,0,0.00
2012-11-22,62.4,47.4,32.9,36.6,31.2,27.0,89,56,31,30.24,30.14,7,1,7,0.00
2012-11-23,65.2,51.5,36.4,45.1,35.2,27.2,77,55,39,30.12,29.85,8,2,8,0.00
2012-11-24,47.2,40.0,28.6,29.4,22.5,18.4,66,50,35,30.08,29.91,8,3,8,0.00
2012-11-25,51.4,38.0,21.3,26.2,21.8,15.6,82,54,31,30.12,29.96,9,2,1,0.00
2012-11-26,64.7,50.4,29.5,32.6,26.9,21.9,75,43,26,30.17,30.05,7,1,0,0.00
2012-11-27,50.3,46.3,41.2,44.8,40.5,30.0,95,81,46,30.21,30.07,6,0,4,0.05
2012-11-28,53.2,41.9,31.7,41.4,29.3,22.6,98,65,32,30.34,30.19,6,1,0,0.00
2012-11-29,54.5,39.8,26.4,35.6,28.1,20.7,82,64,41,30.44,30.32,6,1,8,0.00
2012-11-30,60.7,46.7,34.0,40.5,35.4,31.6,93,67,39,30.36,30.24,8,1,8,0.00
2012-12-1,65.5,49.6,36.2,47.4,41.5,35.2,98,76,45,30.38,30.26,5,0,7,0.00
2012-12-2,67.4,53.8,40.4,52.5,47.2,37.8,97,80,58,30.34,30.20,14,2,0,0.00
2012-12-3,73.8,61.3,52.6,54.8,52.0,49.5,91,73,50,30.28,30.19,7,1,6,0.00
2012-12-4,71.7,60.4,50.1,55.1,51.3,48.2,95,74,46,30.28,30.13,11,2,6,0.00
2012-12-5,61.2,55.8,38.7,55.9,42.9,24.4,91,65,34,30.18,30.08,8,1,6,0.00
2012-12-6,48.9,42.9,35.2,36.0,32.5,28.0,80,67,56,30.30,30.18,7,1,7,0.00
2012-12-7,51.4,46.5,43.7,46.7,40.5,34.9,97,80,62,30.18,29.98,2,0,0,0.07
2012-12-8,63.2,51.4,46.9,54.6,49.5,46.4,98,93,73,30.01,29.94,9,1,9,0.00
2012-12-9,63.7,58.3,51.2,60.7,56.6,50.1,98,94,85,30.10,29.95,6,1,6,0.03
2012-12-10,63.6,60.4,57.2,59.8,58.4,56.4,98,93,85,29.85,29.64,12,4,11,0.05
2012-12-11,61.2,49.5,39.0,58.5,40.8,30.1,91,72,59,30.12,29.67,8,2,6,0.00
2012-12-12,46.4,42.7,38.3,33.1,31.3,29.4,72,64,58,30.29,30.15,11,3,8,0.00
2012-12-13,50.7,40.4,29.3,30.6,25.5,20.1,72,57,33,30.38,30.25,11,2,0,0.00
2012-12-14,58.9,42.2,26.5,31.1,26.1,19.7,83,55,32,30.34,30.20,7,1,0,0.00
2012-12-15,60.0,47.9,37.1,35.5,30.2,26.3,75,52,32,30.23,30.03,7,1,0,0.00
2012-12-16,50.7,47.9,43.4,50.2,44.6,32.5,98,89,55,30.03,29.87,10,1,0,0.27
2012-12-17,55.7,52.3,47.5,55.2,51.7,47.1,99,98,96,29.88,29.61,11,2,0,0.23
2012-12-18,56.3,50.3,39.7,52.5,40.8,29.6,99,72,45,29.88,29.61,11,2,11,0.04
2012-12-19,62.9,50.2,33.3,40.5,36.0,27.4,82,60,39,30.09,29.88,9,1,0,0.00
2012-12-20,52.5,42.8,35.1,52.0,40.3,32.8,99,91,78,30.12,29.46,16,1,6,0.47
2012-12-21,46.6,38.6,35.1,45.2,27.7,22.2,95,65,50,29.80,29.48,16,4,17,0.00
2012-12-22,51.9,38.6,29.6,23.1,18.9,13.3,65,47,25,30.06,29.86,10,2,10,0.00
2012-12-23,52.1,40.0,29.7,25.8,19.6,14.6,59,45,29,30.09,29.96,9,1,9,0.00
2012-12-24,44.4,42.7,40.1,43.9,37.2,24.5,98,83,50,29.98,29.85,7,1,5,0.54
2012-12-25,50.6,42.3,38.9,47.9,41.8,38.4,99,98,89,30.07,29.89,3,0,0,0.01
2012-12-26,43.1,38.1,35.4,40.9,37.1,33.8,98,96,91,30.01,29.44,16,3,8,1.28
2012-12-27,46.0,37.5,29.1,33.9,30.0,25.0,91,75,57,30.06,29.61,9,2,0,0.00
2012-12-28,41.4,33.5,24.7,31.5,27.7,22.1,93,80,62,30.14,29.93,5,0,0,0.00
2012-12-29,50.0,39.8,33.3,41.7,33.0,23.8,97,78,57,29.95,29.64,13,2,5,0.09
2012-12-30,45.2,35.8,28.1,24.5,20.7,17.8,68,55,35,30.34,29.95,9,2,0,0.00
2012-12-31,46.9,43.7,29.7,32.0,29.2,19.2,67,57,50,30.31,30.05,9,2,8,0.00
2013-1-1,48.1,45.1,42.0,47.3,39.5,29.8,98,82,57,30.05,29.89,11,2,0,0.27